Time;durP1;ratioP1;P1;durP2;ratioP2;P2;SDS_P1;SDS_P2;PMS_P1;PMS_P2;Temp;Humidity;BMP_temperature;BMP_pressure;BME280_temperature;BME280_humidity;BME280_pressure;Samples;Min_cycle;Max_cycle;Signal;HPM_P1;HPM_P2
2022/01/17 00:00:08;;;;;;;;;;;23.60;53.70;;;;;;5015778;28;963;-38
2022/01/17 00:02:34;;;;;;;;;;;23.60;53.50;;;;;;5015419;28;971;-48
2022/01/17 00:05:02;;;;;;;;;;;23.50;53.50;;;;;;5015339;28;971;-47
2022/01/17 00:07:30;;;;;;;;;;;23.50;53.60;;;;;;5016186;28;936;-46
2022/01/17 00:09:57;;;;;;;;;;;23.50;53.50;;;;;;5015942;28;916;-48
2022/01/17 00:12:24;;;;;;;;;;;23.50;53.50;;;;;;5015906;28;1006;-48
2022/01/17 00:14:51;;;;;;;;;;;23.40;53.80;;;;;;5015894;28;1902;-48
2022/01/17 00:17:30;;;;;;;;;;;23.50;53.80;;;;;;5015869;28;952;-42
2022/01/17 00:20:06;;;;;;;;;;;23.40;53.70;;;;;;5015767;28;982;-41
2022/01/17 00:22:35;;;;;;;;;;;23.40;53.70;;;;;;5014419;28;997;-40
2022/01/17 00:25:02;;;;;;;;;;;23.40;53.60;;;;;;5014847;28;960;-41
2022/01/17 00:27:30;;;;;;;;;;;23.30;53.90;;;;;;5015292;28;940;-42
2022/01/17 00:29:57;;;;;;;;;;;23.30;53.90;;;;;;5015399;28;996;-49
2022/01/17 00:32:24;;;;;;;;;;;23.30;53.90;;;;;;5015669;28;1032;-48
2022/01/17 00:34:51;;;;;;;;;;;23.30;53.80;;;;;;5015163;28;1983;-49
2022/01/17 00:37:17;;;;;;;;;;;23.30;54.00;;;;;;5015181;28;1011;-49
2022/01/17 00:39:45;;;;;;;;;;;23.30;53.90;;;;;;5015460;28;1019;-48
2022/01/17 00:42:12;;;;;;;;;;;23.30;53.80;;;;;;5015312;28;1008;-49
2022/01/17 00:44:38;;;;;;;;;;;23.30;53.80;;;;;;5015673;28;1162;-49
2022/01/17 00:47:06;;;;;;;;;;;23.40;53.80;;;;;;5015652;28;1003;-42
2022/01/17 00:49:32;;;;;;;;;;;23.40;53.70;;;;;;5015466;28;1031;-42
2022/01/17 00:51:59;;;;;;;;;;;23.30;53.60;;;;;;5015573;28;1008;-42
2022/01/17 00:54:26;;;;;;;;;;;23.30;53.80;;;;;;5015303;28;1906;-42
2022/01/17 00:56:54;;;;;;;;;;;23.30;53.80;;;;;;5015969;28;1020;-42
2022/01/17 00:59:20;;;;;;;;;;;23.30;53.80;;;;;;5015083;28;940;-41
2022/01/17 01:01:47;;;;;;;;;;;23.30;53.80;;;;;;5015614;28;985;-41
2022/01/17 01:04:14;;;;;;;;;;;23.30;53.90;;;;;;5014914;28;963;-41
2022/01/17 01:06:41;;;;;;;;;;;23.30;53.80;;;;;;5015400;28;937;-41
2022/01/17 01:09:07;;;;;;;;;;;23.30;53.70;;;;;;5014737;28;976;-41
2022/01/17 01:11:34;;;;;;;;;;;23.30;53.70;;;;;;5015367;28;940;-42
2022/01/17 01:14:02;;;;;;;;;;;23.30;53.70;;;;;;5014944;28;1902;-41
2022/01/17 01:16:34;;;;;;;;;;;23.30;53.80;;;;;;5013566;28;1766;-42
2022/01/17 01:22:00;;;;;;;;;;;23.20;53.90;;;;;;5016796;28;1383;-42
2022/01/17 01:30:03;;;;;;;;;;;23.30;53.80;;;;;;5014321;28;794;-42
2022/01/17 01:32:37;;;;;;;;;;;23.30;53.70;;;;;;5014840;28;935;-42
2022/01/17 01:35:08;;;;;;;;;;;23.30;53.80;;;;;;5017419;28;1914;-42
2022/01/17 01:37:35;;;;;;;;;;;23.30;53.80;;;;;;5018776;28;980;-41
2022/01/17 01:40:02;;;;;;;;;;;23.30;53.70;;;;;;5018804;28;1040;-42
2022/01/17 01:42:31;;;;;;;;;;;23.20;53.80;;;;;;5018719;28;926;-41
2022/01/17 01:44:57;;;;;;;;;;;23.20;53.90;;;;;;5018684;28;1076;-41
2022/01/17 01:47:27;;;;;;;;;;;23.10;53.90;;;;;;5018487;28;1071;-41
2022/01/17 01:49:54;;;;;;;;;;;23.10;53.90;;;;;;5018262;28;1023;-42
2022/01/17 01:52:21;;;;;;;;;;;23.10;54.00;;;;;;5018723;28;984;-41
2022/01/17 01:54:47;;;;;;;;;;;23.10;53.90;;;;;;5018278;28;1977;-41
2022/01/17 01:57:14;;;;;;;;;;;23.20;53.90;;;;;;5018436;28;1032;-41
2022/01/17 01:59:41;;;;;;;;;;;23.20;53.90;;;;;;5018775;28;919;-41
2022/01/17 02:02:08;;;;;;;;;;;23.20;53.80;;;;;;5018210;28;992;-41
2022/01/17 02:04:36;;;;;;;;;;;23.20;54.00;;;;;;5017838;28;992;-41
2022/01/17 02:07:03;;;;;;;;;;;23.20;53.80;;;;;;5018383;28;975;-41
2022/01/17 02:09:29;;;;;;;;;;;23.20;53.80;;;;;;5017539;28;964;-41
2022/01/17 02:11:56;;;;;;;;;;;23.20;53.90;;;;;;5017844;28;992;-41
2022/01/17 02:14:23;;;;;;;;;;;23.20;53.90;;;;;;5017602;28;1922;-41
2022/01/17 02:16:51;;;;;;;;;;;23.20;53.80;;;;;;5017808;28;1001;-41
2022/01/17 02:19:21;;;;;;;;;;;23.20;53.90;;;;;;5018008;28;992;-41
2022/01/17 02:21:50;;;;;;;;;;;23.20;53.80;;;;;;5017944;28;979;-41
2022/01/17 02:24:18;;;;;;;;;;;23.20;53.80;;;;;;5017665;28;1795;-42
2022/01/17 02:26:45;;;;;;;;;;;23.20;53.70;;;;;;5018171;28;995;-42
2022/01/17 02:29:12;;;;;;;;;;;23.20;53.70;;;;;;5018177;28;1011;-42
2022/01/17 02:31:39;;;;;;;;;;;23.20;53.70;;;;;;5017986;28;1022;-42
2022/01/17 02:34:05;;;;;;;;;;;23.20;53.80;;;;;;5017914;28;1000;-41
2022/01/17 02:36:32;;;;;;;;;;;23.20;53.70;;;;;;5017582;28;1987;-41
2022/01/17 02:39:02;;;;;;;;;;;23.20;53.60;;;;;;5017505;28;967;-41
2022/01/17 02:41:29;;;;;;;;;;;23.20;53.70;;;;;;5017863;28;967;-39
2022/01/17 02:43:56;;;;;;;;;;;23.20;53.70;;;;;;5017181;28;1170;-39
2022/01/17 02:46:26;;;;;;;;;;;23.30;53.60;;;;;;5016745;28;1048;-39
2022/01/17 02:48:54;;;;;;;;;;;23.20;53.70;;;;;;5017869;28;861;-39
2022/01/17 02:51:21;;;;;;;;;;;23.20;53.70;;;;;;5017606;28;1001;-39
2022/01/17 02:53:47;;;;;;;;;;;23.20;53.70;;;;;;5017962;28;1040;-39
2022/01/17 02:56:15;;;;;;;;;;;23.20;53.90;;;;;;5017690;28;1980;-39
2022/01/17 02:58:42;;;;;;;;;;;23.10;53.90;;;;;;5017754;28;1031;-39
2022/01/17 03:01:10;;;;;;;;;;;23.10;53.90;;;;;;5017901;28;912;-38
2022/01/17 03:03:37;;;;;;;;;;;23.10;53.80;;;;;;5017477;28;1181;-39
2022/01/17 03:06:04;;;;;;;;;;;23.10;53.90;;;;;;5017606;28;1008;-39
2022/01/17 03:08:32;;;;;;;;;;;23.10;53.90;;;;;;5017830;28;1047;-39
2022/01/17 03:11:05;;;;;;;;;;;23.10;53.80;;;;;;5017372;28;936;-39
2022/01/17 03:13:34;;;;;;;;;;;23.10;53.80;;;;;;5017960;28;995;-39
2022/01/17 03:16:04;;;;;;;;;;;23.00;53.90;;;;;;5017671;28;1979;-38
2022/01/17 03:18:36;;;;;;;;;;;23.10;53.90;;;;;;5017288;28;990;-39
2022/01/17 03:21:03;;;;;;;;;;;23.00;53.80;;;;;;5017049;28;994;-38
2022/01/17 03:23:30;;;;;;;;;;;23.00;53.90;;;;;;5017512;28;968;-39
2022/01/17 03:25:57;;;;;;;;;;;23.10;53.80;;;;;;5017233;28;965;-39
2022/01/17 03:28:25;;;;;;;;;;;23.00;53.80;;;;;;5016915;28;959;-39
2022/01/17 03:30:53;;;;;;;;;;;23.00;53.90;;;;;;5016820;28;1038;-38
2022/01/17 03:33:20;;;;;;;;;;;23.10;53.60;;;;;;5016863;28;952;-41
2022/01/17 03:35:47;;;;;;;;;;;23.10;53.60;;;;;;5016860;28;1930;-41
2022/01/17 03:38:14;;;;;;;;;;;23.10;53.60;;;;;;5016578;28;999;-41
2022/01/17 03:40:42;;;;;;;;;;;23.10;53.60;;;;;;5016626;28;942;-41
2022/01/17 03:43:08;;;;;;;;;;;23.10;53.70;;;;;;5016768;28;960;-41
2022/01/17 03:45:35;;;;;;;;;;;23.10;53.80;;;;;;5016542;28;1840;-41
2022/01/17 03:48:04;;;;;;;;;;;23.00;53.60;;;;;;5016955;28;968;-41
2022/01/17 03:50:30;;;;;;;;;;;23.10;53.70;;;;;;5016454;28;940;-42
2022/01/17 03:52:57;;;;;;;;;;;23.10;53.80;;;;;;5016626;28;939;-39
2022/01/17 03:55:25;;;;;;;;;;;23.10;53.60;;;;;;5016555;28;1906;-39
2022/01/17 03:57:51;;;;;;;;;;;23.10;53.60;;;;;;5016690;28;1004;-39
2022/01/17 04:00:20;;;;;;;;;;;23.10;53.70;;;;;;5016263;28;1007;-39
2022/01/17 04:02:47;;;;;;;;;;;23.10;53.70;;;;;;5016233;28;1019;-38
2022/01/17 04:05:16;;;;;;;;;;;23.00;53.70;;;;;;5016012;28;1060;-39
2022/01/17 04:07:42;;;;;;;;;;;23.10;53.70;;;;;;5016411;28;940;-39
2022/01/17 04:10:09;;;;;;;;;;;23.10;53.80;;;;;;5016076;28;1023;-39
2022/01/17 04:12:36;;;;;;;;;;;23.00;53.80;;;;;;5015924;28;1000;-39
2022/01/17 04:15:03;;;;;;;;;;;23.00;53.80;;;;;;5016004;28;1977;-39
2022/01/17 04:17:30;;;;;;;;;;;23.00;54.30;;;;;;5016382;28;937;-39
2022/01/17 04:20:03;;;;;;;;;;;23.00;53.90;;;;;;5015568;28;1035;-39
2022/01/17 04:22:34;;;;;;;;;;;23.00;53.90;;;;;;5015350;28;945;-38
2022/01/17 04:25:01;;;;;;;;;;;23.00;54.00;;;;;;5016475;28;1011;-39
2022/01/17 04:27:27;;;;;;;;;;;23.00;53.90;;;;;;5016228;28;999;-39
2022/01/17 04:29:54;;;;;;;;;;;23.00;53.90;;;;;;5016373;28;994;-38
2022/01/17 04:32:21;;;;;;;;;;;23.00;54.10;;;;;;5018582;28;1013;-38
2022/01/17 04:34:48;;;;;;;;;;;23.10;53.90;;;;;;5020567;28;1031;-38
2022/01/17 04:37:14;;;;;;;;;;;23.10;53.60;;;;;;5020162;28;1907;-39
2022/01/17 04:39:42;;;;;;;;;;;23.20;54.70;;;;;;5016623;28;1042;-39
2022/01/17 04:42:13;;;;;;;;;;;23.20;53.70;;;;;;5016712;28;1051;-39
2022/01/17 04:47:25;;;;;;;;;;;23.10;54.10;;;;;;5016189;28;610;-39
2022/01/17 04:49:51;;;;;;;;;;;23.10;53.80;;;;;;5015564;28;1011;-39
2022/01/17 04:52:18;;;;;;;;;;;23.10;54.00;;;;;;5016342;28;995;-38
2022/01/17 04:54:53;;;;;;;;;;;23.10;54.00;;;;;;5016169;28;1000;-39
2022/01/17 04:57:21;;;;;;;;;;;23.20;53.80;;;;;;5015362;28;1887;-39
2022/01/17 04:59:48;;;;;;;;;;;23.30;53.70;;;;;;5016283;28;979;-39
2022/01/17 05:02:15;;;;;;;;;;;23.30;53.70;;;;;;5015470;28;1015;-39
2022/01/17 05:04:44;;;;;;;;;;;23.30;54.00;;;;;;5016044;28;990;-38
2022/01/17 05:07:10;;;;;;;;;;;23.20;54.00;;;;;;5016343;28;944;-39
2022/01/17 05:09:38;;;;;;;;;;;23.30;54.00;;;;;;5017480;28;1770;-39
2022/01/17 05:12:07;;;;;;;;;;;23.30;53.90;;;;;;5019450;28;953;-39
2022/01/17 05:14:34;;;;;;;;;;;23.30;54.10;;;;;;5019613;28;1000;-39
2022/01/17 05:17:06;;;;;;;;;;;23.20;54.10;;;;;;5018981;28;1898;-40
2022/01/17 05:19:54;;;;;;;;;;;23.30;54.00;;;;;;5018890;28;1775;-39
2022/01/17 05:22:22;;;;;;;;;;;23.30;53.80;;;;;;5018543;28;948;-39
2022/01/17 05:24:49;;;;;;;;;;;23.20;53.80;;;;;;5018934;28;1008;-38
2022/01/17 05:27:17;;;;;;;;;;;23.30;53.80;;;;;;5018695;28;1008;-39
2022/01/17 05:29:44;;;;;;;;;;;23.30;53.80;;;;;;5019476;28;1020;-38
2022/01/17 05:32:10;;;;;;;;;;;23.30;53.60;;;;;;5018873;28;928;-38
2022/01/17 05:34:40;;;;;;;;;;;23.30;54.20;;;;;;5018384;28;988;-38
2022/01/17 05:37:07;;;;;;;;;;;23.30;54.00;;;;;;5017113;28;1910;-38
2022/01/17 05:39:34;;;;;;;;;;;23.30;54.30;;;;;;5017536;28;935;-37
2022/01/17 05:42:01;;;;;;;;;;;23.10;54.30;;;;;;5019666;28;1059;-38
2022/01/17 05:44:29;;;;;;;;;;;23.20;54.10;;;;;;5018931;28;1181;-36
2022/01/17 05:46:56;;;;;;;;;;;23.20;54.00;;;;;;5016549;28;975;-38
2022/01/17 05:49:22;;;;;;;;;;;23.10;54.10;;;;;;5017393;28;1012;-38
2022/01/17 05:51:49;;;;;;;;;;;23.10;54.30;;;;;;5016917;28;986;-37
2022/01/17 05:54:16;;;;;;;;;;;23.10;54.20;;;;;;5017025;28;960;-37
2022/01/17 05:56:43;;;;;;;;;;;23.10;54.10;;;;;;5017642;28;1902;-38
2022/01/17 05:59:10;;;;;;;;;;;23.10;54.20;;;;;;5016865;28;1187;-34
2022/01/17 06:01:42;;;;;;;;;;;23.10;54.10;;;;;;5016783;28;1127;-34
2022/01/17 06:04:09;;;;;;;;;;;23.10;54.00;;;;;;5017084;28;1023;-35
2022/01/17 06:06:35;;;;;;;;;;;23.10;54.00;;;;;;5016989;28;1030;-34
2022/01/17 06:09:03;;;;;;;;;;;23.10;53.80;;;;;;5015943;28;1003;-35
2022/01/17 06:11:30;;;;;;;;;;;23.20;53.70;;;;;;5015696;28;992;-34
2022/01/17 06:13:59;;;;;;;;;;;23.10;53.70;;;;;;5015665;28;980;-35
2022/01/17 06:16:26;;;;;;;;;;;23.10;53.60;;;;;;5016263;28;1938;-34
2022/01/17 06:18:54;;;;;;;;;;;23.10;53.70;;;;;;5015224;28;932;-34
2022/01/17 06:21:21;;;;;;;;;;;23.10;53.60;;;;;;5015313;28;1038;-34
2022/01/17 06:23:48;;;;;;;;;;;23.10;53.80;;;;;;5016242;28;991;-34
2022/01/17 06:26:14;;;;;;;;;;;23.10;53.70;;;;;;5014653;28;1054;-34
2022/01/17 06:28:41;;;;;;;;;;;23.10;53.50;;;;;;5014919;28;1825;-34
2022/01/17 06:31:08;;;;;;;;;;;23.10;53.40;;;;;;5014744;28;944;-34
2022/01/17 06:33:35;;;;;;;;;;;23.10;53.50;;;;;;5015347;28;940;-35
2022/01/17 06:36:03;;;;;;;;;;;23.20;53.50;;;;;;5015220;28;1910;-34
2022/01/17 06:38:30;;;;;;;;;;;23.10;53.50;;;;;;5015479;28;1071;-34
2022/01/17 06:40:57;;;;;;;;;;;23.20;53.30;;;;;;5015201;28;942;-35
2022/01/17 06:43:23;;;;;;;;;;;23.10;53.30;;;;;;5014595;28;936;-35
2022/01/17 06:45:50;;;;;;;;;;;23.20;53.30;;;;;;5015237;28;1237;-34
2022/01/17 06:48:17;;;;;;;;;;;23.10;53.40;;;;;;5016745;28;1019;-34
2022/01/17 06:50:44;;;;;;;;;;;23.10;53.30;;;;;;5017193;28;966;-34
2022/01/17 06:53:12;;;;;;;;;;;23.20;53.40;;;;;;5016213;28;928;-35
2022/01/17 06:55:38;;;;;;;;;;;23.10;53.40;;;;;;5015476;28;1000;-36
2022/01/17 06:58:05;;;;;;;;;;;23.20;53.10;;;;;;5015595;28;1975;-34
2022/01/17 07:00:32;;;;;;;;;;;23.20;53.10;;;;;;5016025;28;948;-35
2022/01/17 07:02:59;;;;;;;;;;;23.10;53.20;;;;;;5015394;28;1027;-35
2022/01/17 07:05:25;;;;;;;;;;;23.10;53.20;;;;;;5015095;28;947;-35
2022/01/17 07:07:52;;;;;;;;;;;23.20;53.10;;;;;;5015482;28;936;-34
2022/01/17 07:10:21;;;;;;;;;;;23.10;53.00;;;;;;5015329;28;991;-34
2022/01/17 07:12:47;;;;;;;;;;;23.10;53.20;;;;;;5015702;28;944;-35
2022/01/17 07:15:14;;;;;;;;;;;23.10;53.20;;;;;;5015366;28;959;-34
2022/01/17 07:17:41;;;;;;;;;;;23.10;53.10;;;;;;5015712;28;1898;-34
2022/01/17 07:20:08;;;;;;;;;;;23.00;53.20;;;;;;5015282;28;1007;-34
2022/01/17 07:22:35;;;;;;;;;;;23.10;53.20;;;;;;5015594;28;947;-34
2022/01/17 07:25:02;;;;;;;;;;;23.10;53.10;;;;;;5015510;28;984;-34
2022/01/17 07:27:30;;;;;;;;;;;23.00;53.00;;;;;;5014715;28;976;-35
2022/01/17 07:29:57;;;;;;;;;;;23.00;53.10;;;;;;5015257;28;948;-34
2022/01/17 07:32:24;;;;;;;;;;;23.00;53.00;;;;;;5014828;28;983;-34
2022/01/17 07:34:52;;;;;;;;;;;23.10;53.00;;;;;;5014270;28;948;-34
2022/01/17 07:37:19;;;;;;;;;;;23.00;53.20;;;;;;5014354;28;1898;-35
2022/01/17 07:39:46;;;;;;;;;;;22.90;53.20;;;;;;5013469;28;996;-34
2022/01/17 07:42:13;;;;;;;;;;;23.00;53.20;;;;;;5013797;28;1986;-34
2022/01/17 07:44:43;;;;;;;;;;;22.90;53.10;;;;;;5014766;28;1039;-34
2022/01/17 07:47:16;;;;;;;;;;;23.00;53.20;;;;;;5013976;28;949;-34
2022/01/17 07:49:44;;;;;;;;;;;22.90;53.10;;;;;;5014329;28;1021;-35
2022/01/17 07:52:11;;;;;;;;;;;22.90;53.20;;;;;;5013898;28;955;-34
2022/01/17 07:54:44;;;;;;;;;;;22.90;53.20;;;;;;5012904;28;1779;-34
2022/01/17 07:57:11;;;;;;;;;;;22.90;54.30;;;;;;5014175;28;1987;-34
2022/01/17 07:59:38;;;;;;;;;;;22.90;53.10;;;;;;5013749;28;1021;-35
2022/01/17 08:02:06;;;;;;;;;;;22.90;53.00;;;;;;5014497;28;991;-35
2022/01/17 08:04:33;;;;;;;;;;;22.90;53.10;;;;;;5013435;28;979;-34
2022/01/17 08:07:00;;;;;;;;;;;22.90;53.00;;;;;;5014508;28;964;-35
2022/01/17 08:09:29;;;;;;;;;;;22.90;52.80;;;;;;5014464;28;840;-34
2022/01/17 08:11:56;;;;;;;;;;;22.90;53.00;;;;;;5014583;28;979;-34
2022/01/17 08:14:24;;;;;;;;;;;22.90;52.90;;;;;;5013961;28;967;-34
2022/01/17 08:16:51;;;;;;;;;;;22.90;53.00;;;;;;5013865;28;1997;-35
2022/01/17 08:19:20;;;;;;;;;;;22.90;52.90;;;;;;5013670;28;924;-34
2022/01/17 08:21:48;;;;;;;;;;;22.90;53.00;;;;;;5014527;28;985;-35
2022/01/17 08:24:15;;;;;;;;;;;22.80;53.00;;;;;;5014529;28;1034;-34
2022/01/17 08:26:43;;;;;;;;;;;22.80;53.10;;;;;;5014328;28;1137;-34
2022/01/17 08:29:10;;;;;;;;;;;22.80;53.10;;;;;;5013942;28;936;-34
2022/01/17 08:31:37;;;;;;;;;;;22.80;53.00;;;;;;5013063;28;991;-34
2022/01/17 08:34:04;;;;;;;;;;;22.80;53.10;;;;;;5013344;28;885;-34
2022/01/17 08:36:32;;;;;;;;;;;22.80;53.10;;;;;;5014146;28;1902;-34
2022/01/17 08:38:59;;;;;;;;;;;22.80;53.10;;;;;;5013963;28;989;-35
2022/01/17 08:41:26;;;;;;;;;;;22.70;53.00;;;;;;5014314;28;971;-35
2022/01/17 08:43:52;;;;;;;;;;;22.70;53.10;;;;;;5014736;28;1004;-35
2022/01/17 08:46:19;;;;;;;;;;;22.70;53.30;;;;;;5017147;28;1016;-35
2022/01/17 08:48:46;;;;;;;;;;;22.70;53.20;;;;;;5017313;28;920;-35
2022/01/17 08:51:13;;;;;;;;;;;22.60;53.20;;;;;;5016836;28;1020;-35
2022/01/17 08:53:41;;;;;;;;;;;22.60;53.20;;;;;;5016886;28;956;-35
2022/01/17 08:56:09;;;;;;;;;;;22.60;53.20;;;;;;5016884;28;1002;-35
2022/01/17 08:58:35;;;;;;;;;;;22.60;53.40;;;;;;5017733;28;1988;-35
2022/01/17 09:01:02;;;;;;;;;;;22.60;53.30;;;;;;5017470;28;913;-35
2022/01/17 09:03:29;;;;;;;;;;;22.50;53.30;;;;;;5017172;28;1692;-35
2022/01/17 09:05:55;;;;;;;;;;;22.50;53.30;;;;;;5017382;28;975;-35
2022/01/17 09:08:23;;;;;;;;;;;22.50;53.30;;;;;;5017845;28;868;-35
2022/01/17 09:10:54;;;;;;;;;;;22.50;53.20;;;;;;5018776;28;1015;-35
2022/01/17 09:13:21;;;;;;;;;;;22.40;53.40;;;;;;5017319;28;967;-36
2022/01/17 09:15:47;;;;;;;;;;;22.40;53.40;;;;;;5016975;28;895;-35
2022/01/17 09:18:15;;;;;;;;;;;22.40;53.30;;;;;;5016997;28;1979;-35
2022/01/17 09:20:42;;;;;;;;;;;22.40;53.40;;;;;;5017057;28;1020;-35
2022/01/17 09:23:09;;;;;;;;;;;22.30;53.50;;;;;;5017323;28;948;-35
2022/01/17 09:25:36;;;;;;;;;;;22.40;53.40;;;;;;5016544;28;1004;-35
2022/01/17 09:28:04;;;;;;;;;;;22.50;53.10;;;;;;5017035;28;927;-37
2022/01/17 09:30:31;;;;;;;;;;;22.50;53.20;;;;;;5017130;28;1004;-35
2022/01/17 09:32:58;;;;;;;;;;;22.40;53.20;;;;;;5015916;28;931;-35
2022/01/17 09:35:24;;;;;;;;;;;22.50;53.10;;;;;;5016733;28;1023;-35
2022/01/17 09:37:51;;;;;;;;;;;22.40;53.00;;;;;;5016832;28;1910;-35
2022/01/17 09:40:19;;;;;;;;;;;22.50;53.10;;;;;;5016512;28;1006;-35
2022/01/17 09:42:46;;;;;;;;;;;22.50;53.00;;;;;;5017744;28;1007;-38
2022/01/17 09:45:15;;;;;;;;;;;22.50;52.80;;;;;;5017220;28;1239;-38
2022/01/17 09:47:43;;;;;;;;;;;22.50;52.80;;;;;;5016869;28;1086;-37
2022/01/17 09:50:11;;;;;;;;;;;22.50;52.90;;;;;;5017106;28;988;-38
2022/01/17 09:52:41;;;;;;;;;;;22.50;53.00;;;;;;5016659;28;959;-38
2022/01/17 09:55:09;;;;;;;;;;;22.50;52.90;;;;;;5016909;28;1026;-38
2022/01/17 09:57:39;;;;;;;;;;;22.40;53.00;;;;;;5016238;28;1898;-38
2022/01/17 10:00:06;;;;;;;;;;;22.40;53.00;;;;;;5015194;28;944;-38
2022/01/17 10:02:35;;;;;;;;;;;22.40;53.00;;;;;;5016130;28;972;-38
2022/01/17 10:05:05;;;;;;;;;;;22.50;54.10;;;;;;5017085;28;966;-38
2022/01/17 10:07:46;;;;;;;;;;;22.50;52.80;;;;;;5016366;28;1022;-38
2022/01/17 10:10:13;;;;;;;;;;;22.50;52.80;;;;;;5015649;28;1548;-38
2022/01/17 10:12:40;;;;;;;;;;;22.50;52.60;;;;;;5016786;28;1167;-38
2022/01/17 10:15:12;;;;;;;;;;;22.50;52.60;;;;;;5016395;28;1016;-38
2022/01/17 10:17:44;;;;;;;;;;;22.50;52.60;;;;;;5016104;28;1911;-38
2022/01/17 10:20:15;;;;;;;;;;;22.50;52.70;;;;;;5015272;28;944;-38
2022/01/17 10:22:50;;;;;;;;;;;22.50;52.70;;;;;;5016252;28;1007;-38
2022/01/17 10:25:25;;;;;;;;;;;22.40;52.70;;;;;;5015816;28;1138;-38
2022/01/17 10:28:24;;;;;;;;;;;22.50;52.60;;;;;;5015929;28;943;-38
2022/01/17 10:31:17;;;;;;;;;;;22.50;52.60;;;;;;5016512;28;932;-38
2022/01/17 10:36:42;;;;;;;;;;;22.50;52.50;;;;;;5014825;28;915;-38
2022/01/17 10:39:09;;;;;;;;;;;22.40;52.70;;;;;;5015008;28;1902;-38
2022/01/17 10:41:36;;;;;;;;;;;22.40;52.60;;;;;;5015698;28;997;-36
2022/01/17 10:44:03;;;;;;;;;;;22.40;52.70;;;;;;5016629;28;1188;-35
2022/01/17 10:46:30;;;;;;;;;;;22.40;52.70;;;;;;5015279;28;1002;-36
2022/01/17 10:48:58;;;;;;;;;;;22.40;52.70;;;;;;5014908;28;1019;-35
2022/01/17 10:51:27;;;;;;;;;;;22.40;52.50;;;;;;5015288;28;1000;-35
2022/01/17 10:53:55;;;;;;;;;;;22.50;52.40;;;;;;5014209;28;876;-35
2022/01/17 10:56:24;;;;;;;;;;;22.40;52.50;;;;;;5015024;28;1000;-34
2022/01/17 10:59:01;;;;;;;;;;;22.40;52.60;;;;;;5014794;28;1894;-38
2022/01/17 11:01:35;;;;;;;;;;;22.40;52.70;;;;;;5014294;28;987;-38
2022/01/17 11:04:08;;;;;;;;;;;22.40;52.60;;;;;;5015318;28;915;-38
2022/01/17 11:06:46;;;;;;;;;;;22.40;52.50;;;;;;5014947;28;995;-38
2022/01/17 11:09:12;;;;;;;;;;;22.40;52.50;;;;;;5013125;28;1019;-38
2022/01/17 11:11:40;;;;;;;;;;;22.40;52.30;;;;;;5016160;28;1008;-36
2022/01/17 11:14:08;;;;;;;;;;;22.40;52.40;;;;;;5015041;28;948;-37
2022/01/17 11:16:36;;;;;;;;;;;22.40;52.50;;;;;;5015137;28;876;-36
2022/01/17 11:20:02;;;;;;;;;;;22.30;52.50;;;;;;5014513;28;1991;-36
2022/01/17 11:21:52;;;;;;;;;;;22.40;52.50;;;;;;5015081;28;1665;-36
2022/01/17 11:24:19;;;;;;;;;;;22.40;52.50;;;;;;5015247;28;1027;-36
2022/01/17 11:26:46;;;;;;;;;;;22.40;52.60;;;;;;5014962;28;1188;-36
2022/01/17 11:29:13;;;;;;;;;;;22.40;52.40;;;;;;5015295;28;951;-36
2022/01/17 11:31:39;;;;;;;;;;;22.40;52.40;;;;;;5014763;28;987;-36
2022/01/17 11:34:09;;;;;;;;;;;22.30;52.50;;;;;;5014840;28;1027;-36
2022/01/17 11:36:38;;;;;;;;;;;22.40;52.40;;;;;;5016322;28;992;-36
2022/01/17 11:39:05;;;;;;;;;;;22.40;52.40;;;;;;5014851;28;1991;-37
2022/01/17 11:41:34;;;;;;;;;;;22.40;52.50;;;;;;5015022;28;1022;-36
2022/01/17 11:44:01;;;;;;;;;;;22.30;52.60;;;;;;5014215;28;1843;-36
2022/01/17 11:46:29;;;;;;;;;;;22.30;52.70;;;;;;5014725;28;948;-38
2022/01/17 11:48:58;;;;;;;;;;;22.20;52.60;;;;;;5014017;28;944;-36
2022/01/17 11:51:34;;;;;;;;;;;22.30;52.60;;;;;;5014544;28;920;-35
2022/01/17 11:54:09;;;;;;;;;;;22.30;52.60;;;;;;5013568;28;1033;-35
2022/01/17 11:56:38;;;;;;;;;;;22.30;52.70;;;;;;5013995;28;931;-35
2022/01/17 11:59:20;;;;;;;;;;;22.30;52.60;;;;;;5012299;28;1910;-35
2022/01/17 12:02:13;;;;;;;;;;;22.20;52.60;;;;;;5022184;28;1621;-35
2022/01/17 12:04:40;;;;;;;;;;;22.30;52.60;;;;;;5012227;28;1023;-35
2022/01/17 12:07:08;;;;;;;;;;;22.30;52.50;;;;;;5013168;28;1004;-35
2022/01/17 12:09:39;;;;;;;;;;;22.30;52.60;;;;;;5012494;28;1010;-35
2022/01/17 12:12:13;;;;;;;;;;;22.30;52.50;;;;;;5013703;28;1118;-35
2022/01/17 12:14:42;;;;;;;;;;;22.20;52.50;;;;;;5012994;28;875;-35
2022/01/17 12:17:28;;;;;;;;;;;22.20;52.50;;;;;;5012919;28;862;-35
2022/01/17 12:20:16;;;;;;;;;;;22.20;52.60;;;;;;5012243;28;1032;-35
2022/01/17 12:22:58;;;;;;;;;;;22.20;52.60;;;;;;5012214;28;973;-37
2022/01/17 12:25:31;;;;;;;;;;;22.20;52.60;;;;;;5013418;28;954;-38
2022/01/17 12:28:13;;;;;;;;;;;22.30;52.60;;;;;;5013540;28;1019;-38
2022/01/17 12:30:41;;;;;;;;;;;22.20;52.70;;;;;;5014638;28;1137;-38
2022/01/17 12:33:11;;;;;;;;;;;22.20;52.60;;;;;;5013788;28;956;-37
2022/01/17 12:35:45;;;;;;;;;;;22.20;52.80;;;;;;5013342;28;1000;-38
2022/01/17 12:38:29;;;;;;;;;;;22.20;52.60;;;;;;5012296;28;1975;-38
2022/01/17 12:40:56;;;;;;;;;;;22.20;52.60;;;;;;5012197;28;854;-38
2022/01/17 12:43:27;;;;;;;;;;;22.20;52.60;;;;;;5010659;28;868;-38
2022/01/17 12:45:56;;;;;;;;;;;22.20;52.40;;;;;;5011708;28;1174;-38
2022/01/17 12:48:24;;;;;;;;;;;22.20;52.40;;;;;;5011725;28;1035;-38
2022/01/17 12:50:52;;;;;;;;;;;22.20;53.60;;;;;;5013355;28;1000;-38
2022/01/17 12:53:22;;;;;;;;;;;22.20;52.50;;;;;;5012784;28;1008;-38
2022/01/17 12:55:50;;;;;;;;;;;22.20;53.70;;;;;;5012835;28;1028;-38
2022/01/17 12:58:18;;;;;;;;;;;22.10;53.70;;;;;;5011695;28;1890;-40
2022/01/17 13:00:46;;;;;;;;;;;22.10;52.70;;;;;;5012245;28;1430;-38
2022/01/17 13:03:13;;;;;;;;;;;22.00;52.90;;;;;;5012818;28;1019;-38
2022/01/17 13:05:40;;;;;;;;;;;22.00;52.80;;;;;;5012867;28;1057;-35
2022/01/17 13:08:07;;;;;;;;;;;22.10;52.80;;;;;;5010760;28;912;-35
2022/01/17 13:10:35;;;;;;;;;;;22.10;52.70;;;;;;5010637;28;989;-35
2022/01/17 13:13:02;;;;;;;;;;;22.00;52.80;;;;;;5011562;28;1011;-34
2022/01/17 13:15:29;;;;;;;;;;;22.00;52.90;;;;;;5013015;28;904;-35
2022/01/17 13:17:58;;;;;;;;;;;22.00;52.90;;;;;;5010819;28;1969;-36
2022/01/17 13:20:26;;;;;;;;;;;22.00;52.80;;;;;;5012236;28;880;-35
2022/01/17 13:22:59;;;;;;;;;;;22.00;52.80;;;;;;5012641;28;1020;-35
2022/01/17 13:25:26;;;;;;;;;;;22.00;52.90;;;;;;5013216;28;1355;-35
2022/01/17 13:27:56;;;;;;;;;;;22.00;52.90;;;;;;5008261;28;975;-35
2022/01/17 13:30:22;;;;;;;;;;;22.00;52.80;;;;;;5013894;28;1001;-35
2022/01/17 13:32:49;;;;;;;;;;;22.00;52.80;;;;;;5016627;28;931;-35
2022/01/17 13:35:21;;;;;;;;;;;21.90;53.00;;;;;;5016773;28;1002;-36
2022/01/17 13:37:48;;;;;;;;;;;21.90;53.00;;;;;;5016102;28;1957;-35
2022/01/17 13:40:17;;;;;;;;;;;21.90;53.10;;;;;;5016327;28;914;-35
2022/01/17 13:42:45;;;;;;;;;;;21.90;53.10;;;;;;5015886;28;995;-35
2022/01/17 13:45:13;;;;;;;;;;;22.00;53.10;;;;;;5016191;28;1015;-35
2022/01/17 13:47:41;;;;;;;;;;;21.90;53.00;;;;;;5015749;28;987;-35
2022/01/17 13:50:09;;;;;;;;;;;21.90;53.00;;;;;;5015857;28;1004;-35
2022/01/17 13:52:35;;;;;;;;;;;21.90;53.10;;;;;;5016502;28;928;-35
2022/01/17 13:55:22;;;;;;;;;;;21.80;53.20;;;;;;5016105;28;920;-35
2022/01/17 13:57:56;;;;;;;;;;;21.90;53.10;;;;;;5014804;28;1365;-35
2022/01/17 14:00:24;;;;;;;;;;;22.00;53.00;;;;;;5015961;28;991;-35
2022/01/17 14:03:00;;;;;;;;;;;21.80;53.00;;;;;;5015533;28;928;-35
2022/01/17 14:05:30;;;;;;;;;;;21.90;53.00;;;;;;5015489;28;923;-35
2022/01/17 14:08:10;;;;;;;;;;;21.90;53.10;;;;;;5015347;28;976;-35
2022/01/17 14:10:37;;;;;;;;;;;22.00;53.00;;;;;;5014238;28;910;-35
2022/01/17 14:13:06;;;;;;;;;;;21.90;52.90;;;;;;5015077;28;1000;-35
2022/01/17 14:15:34;;;;;;;;;;;21.90;52.80;;;;;;5015061;28;872;-35
2022/01/17 14:18:04;;;;;;;;;;;22.00;52.80;;;;;;5015592;28;1906;-37
2022/01/17 14:20:31;;;;;;;;;;;21.90;52.90;;;;;;5015500;28;960;-38
2022/01/17 14:22:58;;;;;;;;;;;21.80;52.80;;;;;;5015819;28;1018;-38
2022/01/17 14:25:25;;;;;;;;;;;21.90;52.90;;;;;;5015087;28;1019;-38
2022/01/17 14:28:03;;;;;;;;;;;21.90;52.80;;;;;;5015123;28;1062;-38
2022/01/17 14:30:31;;;;;;;;;;;21.90;53.00;;;;;;5015649;28;932;-38
2022/01/17 14:33:10;;;;;;;;;;;21.80;53.00;;;;;;5015784;28;948;-38
2022/01/17 14:35:37;;;;;;;;;;;21.90;52.90;;;;;;5015493;28;1086;-38
2022/01/17 14:38:03;;;;;;;;;;;21.80;52.90;;;;;;5015022;28;1034;-38
2022/01/17 14:40:31;;;;;;;;;;;21.90;53.00;;;;;;5015369;28;1911;-39
2022/01/17 14:43:09;;;;;;;;;;;21.80;53.00;;;;;;5013512;28;952;-38
2022/01/17 14:45:38;;;;;;;;;;;21.80;53.00;;;;;;5015811;28;1280;-38
2022/01/17 14:48:14;;;;;;;;;;;21.90;53.00;;;;;;5014921;28;948;-38
2022/01/17 14:50:41;;;;;;;;;;;21.80;52.90;;;;;;5015193;28;952;-38
2022/01/17 14:53:13;;;;;;;;;;;21.80;53.00;;;;;;5014844;28;980;-38
2022/01/17 15:01:23;;;;;;;;;;;21.80;53.10;;;;;;5014773;28;888;-38
2022/01/17 15:03:55;;;;;;;;;;;21.80;53.00;;;;;;5015963;28;924;-38